Date,TemperatureHighF,TemperatureAvgF,TemperatureLowF,DewpointHighF,DewpointAvgF,DewpointLowF,HumidityHigh,HumidityAvg,HumidityLow,PressureMaxIn,PressureMinIn,WindSpeedMaxMPH,WindSpeedAvgMPH,GustSpeedMaxMPH,PrecipitationSumIn
2013-1-1,34.4,19.3,0.0,33.4,18.3,0.0,96,62,90,30.26,30.01,8,2,11,0.00
2013-1-2,38.3,28.9,23.1,26.8,22.4,20.6,91,78,53,30.27,30.17,8,2,11,0.01
2013-1-3,43.6,32.0,22.0,29.8,24.5,18.7,91,75,50,30.43,30.26,7,1,11,0.00
2013-1-4,47.4,36.0,26.1,26.9,24.6,23.1,90,66,39,30.47,30.30,10,2,13,0.00
2013-1-5,36.4,33.7,30.5,25.8,24.6,23.4,75,69,63,30.30,30.28,7,2,9,0.00
2013-1-6,45.9,26.9,0.0,27.4,17.8,0.0,80,45,42,30.34,30.22,4,1,15,0.00
2013-1-7,54.9,44.9,22.3,28.0,25.1,17.6,88,47,31,30.34,30.10,8,1,10,0.00
2013-1-8,58.8,46.6,32.9,47.2,37.1,23.3,95,71,51,30.20,30.01,19,1,19,0.06
2013-1-9,47.6,40.3,0.0,46.2,38.9,0.0,95,83,94,30.31,30.17,2,0,7,0.01
2013-1-10,52.8,34.3,0.0,50.6,32.4,0.0,96,62,84,30.19,29.78,18,2,20,0.29
2013-1-11,67.4,56.5,47.6,49.1,45.5,43.6,87,68,43,29.85,29.70,25,6,32,0.00
2013-1-12,58.2,57.7,57.2,51.6,51.4,49.1,80,79,73,29.90,29.72,7,0,10,0.00
2013-1-13,57.7,33.8,17.3,51.6,28.5,14.6,89,81,70,30.40,29.89,14,1,18,0.00
2013-1-14,31.7,22.3,15.3,16.7,14.8,12.9,91,74,50,30.49,30.34,7,0,10,0.00
2013-1-15,33.1,24.9,18.2,21.8,18.2,14.2,88,76,59,30.35,30.16,7,0,8,0.01
2013-1-16,44.1,31.5,18.1,22.3,19.4,15.7,91,64,38,30.21,30.09,9,1,15,0.00
2013-1-17,46.7,36.1,27.9,32.8,26.4,19.8,85,69,47,30.50,30.20,13,1,13,0.00
2013-1-18,58.9,43.2,24.0,30.8,25.7,19.4,89,55,22,30.51,30.17,21,5,23,0.00
2013-1-19,62.8,51.1,41.7,36.8,33.4,24.9,71,52,35,30.18,30.03,25,6,29,0.00
2013-1-20,60.9,44.5,29.3,34.6,29.3,18.6,82,57,35,30.25,30.08,14,1,14,0.00
2013-1-21,38.4,28.9,22.1,18.9,16.1,14.0,74,60,39,30.37,30.25,13,1,18,0.00
2013-1-22,44.2,30.6,19.3,23.7,19.6,13.9,84,65,43,30.35,30.22,8,0,11,0.00
2013-1-23,63.9,43.4,23.1,44.6,33.2,19.0,86,69,45,30.26,30.12,12,1,14,0.00
2013-1-24,41.3,34.5,28.2,29.3,20.2,14.1,90,56,42,30.33,30.12,14,4,18,0.00
2013-1-25,48.8,37.8,27.8,35.2,30.7,25.2,94,77,55,30.22,30.10,10,1,12,0.00
2013-1-26,58.7,45.6,31.7,35.3,27.8,24.1,88,54,28,30.26,30.11,8,2,17,0.00
2013-1-27,61.9,53.1,46.7,57.0,47.3,35.6,87,80,64,30.11,29.89,14,4,27,0.00
2013-1-28,72.8,68.7,62.2,61.2,60.3,57.3,85,75,63,29.92,29.72,31,9,33,0.00
2013-1-29,69.9,60.8,47.9,62.3,56.7,46.1,95,87,75,29.73,29.33,28,4,34,1.46
2013-1-30,48.4,33.8,25.2,46.8,28.7,20.2,95,81,71,30.04,29.40,29,7,30,0.00
2013-1-31,50.2,31.5,16.9,29.5,20.6,8.1,85,65,41,30.43,30.00,20,4,22,0.00
2013-2-1,44.6,28.6,13.0,18.3,12.1,6.2,79,52,32,30.46,30.19,11,1,13,0.00
2013-2-2,54.2,42.6,29.6,32.5,27.2,17.7,65,55,41,30.24,30.14,13,3,17,0.00
2013-2-3,44.4,43.4,42.7,31.0,30.4,29.8,61,60,57,30.16,30.15,10,5,12,0.00
2013-2-4,59.4,50.0,35.7,46.5,40.4,26.7,90,70,39,29.91,29.78,21,3,30,0.11
2013-2-5,67.0,47.5,31.4,47.7,35.1,29.5,94,67,29,30.06,29.87,15,1,18,0.00
2013-2-6,67.3,50.4,33.6,44.6,36.5,28.6,85,61,37,30.11,29.91,16,2,18,0.00
2013-2-7,62.7,51.7,42.3,53.8,47.8,38.1,95,87,68,30.06,29.81,16,2,18,0.25
2013-2-8,50.5,41.0,33.0,38.3,32.6,29.3,87,73,51,30.26,30.06,12,2,17,0.00
2013-2-9,48.5,39.9,33.4,45.1,34.3,29.7,91,81,60,30.22,29.80,18,4,19,0.08
2013-2-10,61.3,52.7,39.8,53.9,38.1,24.6,95,62,30,30.00,29.56,31,9,33,0.66
2013-2-11,54.9,42.5,31.7,29.0,26.6,23.3,83,56,32,30.16,30.00,9,1,10,0.00
2013-2-12,45.4,36.9,30.2,34.7,30.6,26.4,94,79,52,30.12,29.86,15,1,16,0.31
2013-2-13,51.4,41.8,33.3,37.2,33.0,30.4,95,73,46,29.99,29.90,19,4,21,0.02
2013-2-14,57.8,47.6,41.2,36.3,31.7,26.6,68,54,40,30.12,29.92,12,3,15,0.00
2013-2-15,43.1,35.0,26.5,30.7,21.1,14.2,81,58,36,30.29,30.12,14,4,18,0.00
2013-2-16,39.6,33.4,25.6,23.6,19.4,14.4,87,58,38,30.32,30.11,17,1,19,0.00
2013-2-17,66.3,51.4,36.6,34.2,26.5,14.9,48,39,24,30.11,29.78,24,5,29,0.00
2013-2-18,58.2,49.7,31.8,51.9,39.4,21.1,85,68,45,30.10,29.53,31,12,35,0.11
2013-2-19,46.1,35.2,26.1,22.6,19.2,15.6,78,54,33,30.29,30.10,26,2,26,0.00
2013-2-20,32.7,30.3,27.0,28.1,19.4,13.7,88,64,50,30.31,30.07,12,2,18,0.04
2013-2-21,35.5,31.2,27.3,34.0,28.5,19.6,95,89,68,30.08,29.72,19,3,27,0.12
2013-2-22,39.6,30.6,23.7,32.6,23.9,18.8,92,77,56,30.10,29.86,19,2,24,0.19
2013-2-23,45.6,32.8,20.7,26.3,23.2,18.4,92,70,42,30.09,29.94,8,0,13,0.17
2013-2-24,58.4,42.4,24.8,37.1,30.9,22.2,92,66,41,30.00,29.84,14,2,16,0.01
2013-2-25,47.3,39.7,34.9,38.8,33.2,28.6,94,78,57,29.87,29.35,18,2,21,0.62
2013-2-26,34.9,32.9,32.7,33.3,31.6,31.4,95,95,94,29.85,29.31,9,1,14,0.01
2013-2-27,40.0,35.0,32.5,32.3,29.5,26.4,95,80,67,30.04,29.83,22,4,28,0.01
2013-2-28,36.6,32.8,30.4,27.7,26.6,24.1,85,78,68,30.18,30.03,12,3,19,0.00
2013-3-1,31.3,29.5,27.3,25.1,23.4,21.0,87,78,70,30.25,30.14,14,4,18,0.00
2013-3-2,35.7,28.8,24.0,24.0,20.9,18.6,86,73,53,30.32,30.21,16,3,18,0.00
2013-3-3,60.5,43.5,24.0,31.3,26.2,18.9,85,54,32,30.22,29.75,14,2,18,0.00
2013-3-4,66.1,54.0,42.1,47.3,40.5,30.8,85,61,45,29.86,29.56,21,3,23,0.00
2013-3-5,45.2,38.2,29.8,34.5,25.8,19.3,91,63,40,30.30,29.82,25,8,32,0.08
2013-3-6,49.1,36.3,24.9,28.4,22.5,18.7,78,59,37,30.40,30.24,17,0,20,0.00
2013-3-7,65.8,49.2,33.7,31.7,27.9,20.7,75,47,18,30.28,30.11,11,1,13,0.00
2013-3-8,65.6,52.2,35.9,40.5,34.6,30.2,82,54,31,30.24,30.00,13,2,18,0.01
2013-3-9,69.4,60.7,52.7,56.0,47.9,36.5,92,64,38,30.01,29.63,24,7,29,0.04
2013-3-10,57.3,45.0,30.6,55.0,41.9,27.2,93,89,65,29.88,29.60,29,5,30,0.53
2013-3-11,45.4,35.6,29.0,28.5,24.9,21.9,87,67,40,30.05,29.85,20,4,24,0.01
2013-3-12,56.5,43.2,29.1,30.2,26.1,20.4,85,53,28,30.30,30.03,20,3,22,0.00
2013-3-13,52.7,40.3,29.8,25.8,21.9,19.0,72,50,28,30.44,30.30,10,1,13,0.00
2013-3-14,70.4,54.5,30.9,43.5,33.5,21.9,77,47,32,30.32,30.05,27,7,36,0.00
2013-3-15,79.4,68.5,57.1,47.7,45.0,42.4,63,45,27,30.05,29.70,33,11,33,0.00
2013-3-16,77.0,64.1,46.9,50.9,45.2,38.4,72,51,39,29.80,29.67,23,4,25,0.00
2013-3-17,46.9,42.4,40.1,41.2,39.2,37.4,95,89,72,29.84,29.63,16,2,19,0.28
2013-3-18,52.9,45.1,35.9,43.5,38.1,29.9,96,78,47,30.04,29.66,17,2,20,0.02
2013-3-19,56.3,43.2,32.1,34.3,26.4,17.1,89,57,24,30.24,30.00,10,1,17,0.00
2013-3-20,46.1,38.0,30.0,31.6,22.2,15.9,87,56,30,30.33,30.08,22,3,24,0.00
2013-3-21,42.4,34.3,29.9,31.4,22.6,12.5,93,66,31,30.08,29.82,13,2,15,0.16
2013-3-22,36.6,34.5,31.7,35.0,33.0,29.4,95,94,91,29.94,29.83,8,1,9,0.38
2013-3-23,40.4,37.7,35.2,39.1,36.4,33.9,96,95,94,29.91,29.69,13,2,15,0.04
2013-3-24,40.6,33.8,27.6,39.5,29.3,19.8,96,84,68,30.09,29.59,27,10,35,0.03
2013-3-25,34.6,29.3,24.2,25.0,21.6,17.8,80,73,60,30.33,30.06,23,4,25,0.00
2013-3-26,46.4,34.4,24.4,25.7,23.3,21.1,89,66,41,30.41,30.30,11,1,13,0.00
2013-3-27,63.6,45.9,24.8,31.5,25.6,20.6,87,51,22,30.33,30.13,12,1,12,0.00
2013-3-28,71.1,59.4,48.5,47.0,40.8,30.8,69,51,40,30.20,30.06,19,3,21,0.00
2013-3-29,71.2,59.9,51.7,53.7,50.1,46.9,90,71,48,30.15,30.03,11,2,12,0.05
2013-3-30,70.4,59.9,53.0,55.6,52.4,48.8,93,77,54,30.05,29.81,15,4,18,0.22
2013-3-31,70.3,58.1,48.0,51.8,44.7,36.3,95,65,33,29.92,29.79,13,1,16,0.05
2013-4-1,61.5,48.4,39.9,43.5,39.5,35.0,91,73,45,30.18,29.92,14,2,16,0.10
2013-4-2,41.2,37.5,35.5,37.2,33.3,31.4,90,85,71,30.25,30.15,13,2,16,0.25
2013-4-3,51.2,43.5,35.6,31.8,27.5,23.7,85,55,35,30.26,30.12,22,4,23,0.01
2013-4-4,53.0,46.3,38.3,37.6,34.0,29.5,90,64,45,30.13,30.02,10,1,13,0.05
2013-4-5,74.3,55.6,33.6,39.3,35.1,29.8,89,51,25,30.18,29.93,9,1,14,0.00
2013-4-6,75.3,65.0,56.4,48.8,43.8,36.1,59,47,33,29.93,29.72,28,8,34,0.00
2013-4-7,79.0,67.4,58.0,57.2,53.6,48.5,77,62,40,29.85,29.68,21,3,22,0.00
2013-4-8,72.1,66.9,61.0,60.4,57.8,54.5,87,73,65,29.75,29.66,22,4,26,0.02
2013-4-9,82.4,71.7,63.8,64.1,59.6,55.7,79,67,46,29.74,29.64,26,4,27,0.00
2013-4-10,74.1,53.7,37.6,64.9,48.9,35.8,94,84,71,29.81,29.58,29,3,31,0.64
2013-4-11,52.7,41.8,34.1,35.8,32.8,30.5,94,72,45,29.83,29.71,20,2,23,0.01
2013-4-12,59.7,47.6,37.1,38.3,32.8,28.1,79,58,37,30.01,29.77,18,2,22,0.00
2013-4-13,69.9,57.8,40.8,48.0,42.3,36.1,87,58,39,30.02,29.75,15,2,18,0.01
2013-4-14,80.3,69.4,57.5,53.0,47.4,40.6,70,48,26,29.75,29.46,24,4,27,0.00
2013-4-15,81.1,70.3,58.1,63.3,59.5,51.8,86,70,54,29.78,29.60,21,3,27,0.00
2013-4-16,77.5,62.0,52.2,63.5,56.1,50.0,95,82,61,29.92,29.78,11,1,13,0.00
2013-4-17,83.3,72.4,52.3,68.4,62.2,49.8,96,72,54,29.90,29.50,33,6,33,0.00
2013-4-18,75.4,50.9,37.6,65.9,45.1,27.3,95,81,60,29.93,29.47,27,7,31,1.46
2013-4-19,55.5,44.9,35.4,31.9,27.3,22.5,72,52,30,30.08,29.92,29,6,29,0.00
2013-4-20,70.7,55.2,36.1,41.0,35.2,29.7,84,50,26,30.19,30.05,9,1,13,0.00
2013-4-21,71.0,59.6,50.1,42.1,38.7,34.4,70,47,27,30.23,30.06,17,2,19,0.00
2013-4-22,74.8,61.5,42.9,46.3,40.5,34.3,83,49,24,30.13,29.86,16,2,20,0.00
2013-4-23,63.6,51.4,36.7,56.2,45.3,34.6,93,81,57,30.09,29.74,21,3,26,0.17
2013-4-24,55.7,43.9,35.5,35.0,31.0,25.0,93,64,31,30.30,30.05,14,2,18,0.01
2013-4-25,73.3,55.6,33.2,37.2,32.3,27.0,86,47,19,30.35,30.18,11,1,13,0.00
2013-4-26,57.2,50.7,47.3,49.1,45.5,36.6,94,83,47,30.31,30.07,15,2,24,1.18
2013-4-27,58.0,52.5,49.6,55.4,50.7,48.0,95,94,90,30.08,29.94,19,2,22,0.81
2013-4-28,77.7,62.0,50.3,54.5,49.8,45.8,95,68,33,29.98,29.82,11,2,14,0.01
2013-4-29,85.4,72.3,55.6,61.6,55.4,50.4,87,58,31,29.85,29.69,24,5,25,0.00
2013-4-30,84.8,73.7,63.7,57.7,52.0,44.5,74,50,25,29.81,29.72,18,3,23,0.00
2013-5-1,84.2,71.0,60.7,63.6,58.6,52.5,85,66,41,29.99,29.80,16,2,24,0.00
2013-5-2,62.5,49.5,34.6,58.2,45.7,33.0,94,87,74,30.18,29.95,17,6,19,0.13
2013-5-3,39.1,35.8,32.8,36.8,34.0,31.3,96,93,88,30.14,29.88,19,5,24,0.77
2013-5-4,43.8,39.0,34.9,38.6,36.2,33.3,95,90,78,29.99,29.83,6,0,11,0.12
2013-5-5,60.5,48.6,35.8,48.6,42.7,34.2,95,81,59,30.07,29.97,15,3,19,0.01
2013-5-6,64.1,55.3,49.8,53.8,50.3,47.4,94,84,67,30.03,29.95,12,3,16,0.00
2013-5-7,80.2,64.7,45.9,56.4,50.3,44.0,96,65,34,30.04,29.91,7,1,11,0.00
2013-5-8,82.8,70.3,56.9,59.5,54.9,50.5,84,60,35,29.99,29.84,14,2,17,0.00
2013-5-9,80.8,66.6,59.7,61.1,57.8,53.6,95,75,41,29.91,29.81,30,3,44,1.24
2013-5-10,70.2,62.6,53.9,61.2,56.6,51.0,96,82,59,29.99,29.81,12,2,18,0.24
2013-5-11,73.8,60.2,48.1,55.3,46.9,36.7,95,65,32,30.16,29.98,17,2,21,0.00
2013-5-12,71.3,57.1,41.3,45.4,37.9,30.0,89,53,25,30.23,30.09,12,0,12,0.00
2013-5-13,80.5,66.8,46.4,55.5,48.5,41.4,86,55,31,30.14,29.96,24,3,24,0.00
2013-5-14,87.9,77.2,68.4,57.7,52.4,47.9,56,43,26,29.98,29.86,24,7,32,0.00
2013-5-15,79.2,69.8,64.2,66.2,60.2,51.0,93,73,52,29.91,29.78,21,3,29,0.67
2013-5-16,67.6,64.8,60.5,62.8,60.9,58.8,94,87,82,29.83,29.76,9,1,11,0.00
2013-5-17,82.1,69.7,57.3,65.4,61.9,56.2,97,78,54,29.87,29.79,6,0,10,0.01
2013-5-18,88.7,76.5,61.6,73.5,68.7,59.6,95,78,58,29.86,29.73,13,2,16,0.00
2013-5-19,90.1,80.5,73.0,69.8,66.4,61.6,88,65,39,29.75,29.57,22,4,27,0.00
2013-5-20,82.0,72.1,62.9,70.0,64.3,58.1,88,77,65,29.77,29.58,31,5,37,0.35
2013-5-21,67.4,62.3,58.7,61.6,59.1,55.8,93,89,76,29.85,29.53,35,4,41,0.99
2013-5-22,76.5,66.4,56.3,59.9,56.5,54.1,93,72,49,29.88,29.72,22,3,24,0.01
2013-5-23,78.2,66.0,54.5,60.7,57.2,52.2,94,75,52,30.13,29.87,11,1,11,0.00
2013-5-24,74.8,65.1,56.0,55.7,52.6,49.1,88,65,48,30.24,30.10,14,2,18,0.00
2013-5-25,86.4,71.7,54.4,66.7,58.6,49.0,87,65,46,30.19,29.99,13,2,18,0.00
2013-5-26,85.1,75.6,67.0,67.3,63.5,60.8,85,67,47,30.04,29.89,19,4,26,0.00
2013-5-27,83.7,76.2,68.8,68.4,65.6,62.8,86,71,54,29.90,29.70,28,6,30,0.00
2013-5-28,84.5,76.9,72.0,67.1,64.8,61.9,78,67,52,29.80,29.68,28,6,30,0.00
2013-5-29,82.3,76.3,69.8,67.0,64.9,63.7,84,68,55,29.82,29.67,24,4,27,0.00
2013-5-30,82.3,71.6,63.4,68.7,64.8,60.1,91,80,60,29.78,29.64,35,6,50,0.44
2013-5-31,86.6,77.0,63.8,72.6,69.0,60.2,90,77,60,29.74,29.58,23,5,25,0.00
2013-6-1,78.2,68.6,59.7,72.2,62.8,55.5,95,82,65,29.91,29.61,33,3,34,0.66
2013-6-2,69.0,61.6,53.8,58.2,55.2,51.5,93,80,63,29.98,29.90,14,1,16,0.00
2013-6-3,81.1,65.8,49.6,61.2,55.8,47.7,96,73,45,30.01,29.85,7,0,12,0.01
2013-6-4,79.0,70.1,62.2,65.4,60.8,57.2,84,73,56,29.93,29.83,11,1,14,0.00
2013-6-5,82.9,69.4,60.1,68.2,62.6,57.8,93,80,51,29.94,29.76,15,1,20,0.04
2013-6-6,73.6,65.9,59.5,63.9,60.9,57.2,95,84,69,29.87,29.80,12,0,12,0.00
2013-6-7,76.9,65.8,53.5,59.1,55.3,51.5,95,72,43,29.92,29.83,12,1,17,0.01
2013-6-8,85.1,70.9,53.5,60.6,56.1,50.9,93,63,34,29.89,29.78,11,1,17,0.00
2013-6-9,83.3,72.4,66.0,67.6,61.1,55.2,91,69,39,29.82,29.75,26,1,26,0.18
2013-6-10,92.8,80.2,67.7,69.4,64.5,57.8,80,60,35,29.83,29.76,22,4,30,0.00
2013-6-11,94.4,84.5,75.7,70.3,66.5,57.0,76,57,30,29.90,29.81,20,5,25,0.00
2013-6-12,91.1,83.5,76.2,71.2,69.7,66.6,80,64,45,29.89,29.78,32,9,36,0.00
2013-6-13,92.6,81.3,72.4,72.2,68.2,63.3,84,66,42,29.91,29.83,11,2,14,0.00
2013-6-14,95.3,80.7,66.3,73.4,68.7,63.1,92,68,48,29.94,29.82,12,1,14,0.00
2013-6-15,91.5,77.0,70.0,72.3,67.4,60.4,92,73,51,29.95,29.84,11,1,19,0.04
2013-6-16,91.0,78.6,70.1,72.6,68.5,64.6,92,73,50,29.92,29.81,16,2,20,0.10
2013-6-17,80.6,70.8,66.6,68.8,66.5,64.2,95,87,64,29.89,29.78,9,0,11,0.20
2013-6-18,86.9,74.7,62.9,69.4,64.1,61.5,97,73,45,29.96,29.86,7,0,8,0.01
2013-6-19,91.9,77.9,62.3,67.4,63.6,56.6,94,65,32,29.97,29.87,12,1,13,0.00
2013-6-20,92.2,80.8,67.8,70.0,67.4,63.3,87,65,46,29.99,29.90,15,2,19,0.00
2013-6-21,93.5,83.7,75.5,73.0,70.6,69.2,83,66,46,29.99,29.90,18,3,20,0.00
2013-6-22,93.0,82.6,74.9,72.4,69.7,65.3,85,67,41,29.98,29.85,16,3,18,0.00
2013-6-23,92.8,82.7,73.5,72.0,69.3,66.6,87,66,43,29.92,29.82,20,3,22,0.00
2013-6-24,92.6,82.5,74.6,71.4,69.1,67.0,82,65,45,29.96,29.85,26,4,26,0.00
2013-6-25,92.2,82.7,75.6,72.0,69.0,64.4,81,65,40,29.88,29.75,20,5,26,0.00
2013-6-26,94.9,85.4,77.7,75.4,72.4,69.4,82,66,50,29.82,29.73,25,6,33,0.00
2013-6-27,100.3,88.2,76.1,74.9,73.1,71.4,86,63,43,29.86,29.73,15,2,15,0.00
2013-6-28,92.5,83.3,71.5,74.8,65.8,58.9,79,57,36,29.82,29.71,23,3,27,0.00
2013-6-29,86.5,76.4,65.0,60.8,56.0,52.4,80,52,32,29.78,29.69,22,3,28,0.00
2013-6-30,78.7,70.4,63.4,62.1,59.4,57.5,87,69,51,29.88,29.73,19,3,20,0.00
2013-7-1,81.9,71.6,62.2,61.2,55.9,48.3,89,61,34,29.95,29.87,20,3,20,0.00
2013-7-2,81.8,70.1,55.7,56.7,52.5,46.9,90,57,30,30.00,29.93,15,2,20,0.00
2013-7-3,87.9,72.8,55.8,58.2,53.2,50.1,86,54,29,30.05,29.92,9,0,12,0.00
2013-7-4,87.6,73.2,56.6,60.3,56.3,51.7,87,58,33,29.99,29.89,11,1,20,0.00
2013-7-5,93.0,76.5,61.5,65.0,58.6,54.5,84,57,29,29.97,29.86,13,1,25,0.01
2013-7-6,94.7,79.4,68.9,66.0,62.2,56.4,81,59,29,29.94,29.84,12,0,21,0.00
2013-7-7,95.4,83.4,72.6,68.2,64.2,56.9,78,55,29,29.96,29.88,12,1,17,0.00
2013-7-8,96.0,83.7,74.3,71.1,67.8,64.0,80,61,36,30.00,29.91,15,2,20,0.00
2013-7-9,95.0,85.8,76.1,70.7,68.8,67.0,77,58,43,29.99,29.85,20,4,23,0.00
2013-7-10,101.3,87.7,76.0,70.1,68.1,65.7,75,54,34,29.93,29.77,11,1,18,0.00
2013-7-11,97.0,83.6,71.5,72.7,65.6,58.3,88,58,32,29.91,29.81,11,1,17,0.00
2013-7-12,93.3,80.5,69.5,64.5,59.3,50.3,72,50,28,29.97,29.87,13,1,15,0.00
2013-7-13,91.0,77.4,59.4,60.0,56.2,50.3,83,51,26,29.97,29.85,12,2,13,0.00
2013-7-14,89.1,78.4,64.3,64.3,59.0,54.5,81,54,32,29.98,29.89,14,3,18,0.00
2013-7-15,94.3,78.7,69.7,68.8,66.2,61.8,88,68,36,30.09,29.97,14,2,19,0.00
2013-7-16,92.0,78.3,68.1,73.6,70.2,65.2,93,78,46,30.20,30.08,14,1,19,0.02
2013-7-17,95.5,82.8,68.4,72.6,67.1,63.2,96,64,36,30.24,30.08,11,1,14,0.00
2013-7-18,97.4,84.1,69.7,70.1,66.5,63.3,86,58,34,30.11,29.91,13,1,13,0.00
2013-7-19,92.3,77.4,71.8,72.1,68.6,66.3,88,76,46,29.94,29.84,12,2,20,0.40
2013-7-20,92.4,77.3,71.0,72.3,69.1,66.8,93,77,48,29.88,29.77,15,3,21,0.17
2013-7-21,82.5,76.4,69.6,74.0,71.5,68.1,96,85,70,29.85,29.75,15,1,15,0.07
2013-7-22,86.0,75.2,65.2,74.3,68.6,61.3,96,81,60,29.93,29.75,25,3,28,1.30
2013-7-23,97.7,83.3,72.3,75.7,72.2,67.9,91,71,47,29.83,29.69,24,4,29,0.23
2013-7-24,86.1,76.7,69.5,70.8,69.0,67.3,94,78,59,29.93,29.74,26,2,30,0.15
2013-7-25,89.9,78.1,66.8,67.7,65.6,63.5,91,68,43,30.01,29.93,7,0,10,0.00
2013-7-26,73.9,71.1,67.1,70.0,67.5,65.1,95,89,78,29.96,29.91,12,1,12,0.87
2013-7-27,82.3,72.0,64.8,66.8,62.7,58.1,96,75,47,29.98,29.89,9,1,12,0.01
2013-7-28,80.4,69.3,63.2,65.8,63.2,59.9,93,82,56,29.98,29.90,11,0,12,0.00
2013-7-29,86.9,77.6,67.7,72.9,69.5,64.6,90,77,60,30.01,29.91,19,3,20,0.10
2013-7-30,89.2,79.0,72.3,75.1,72.7,70.5,95,82,60,29.96,29.88,14,2,18,0.73
2013-7-31,89.3,80.4,71.8,75.6,72.3,69.0,93,78,58,29.96,29.88,15,2,18,0.00
2013-8-1,92.1,78.2,67.4,70.1,67.4,65.6,96,72,44,30.01,29.89,7,1,9,0.01
2013-8-2,89.9,80.0,72.2,76.3,71.6,64.9,87,76,60,29.90,29.79,13,4,18,0.00
2013-8-3,90.4,78.9,68.1,75.7,71.6,66.6,96,80,55,30.03,29.79,16,2,31,1.83
2013-8-4,78.9,73.7,71.5,74.4,70.3,67.4,94,89,84,30.06,29.93,11,1,18,0.14
2013-8-5,91.7,81.3,70.8,78.2,74.1,68.0,93,80,58,29.93,29.75,13,2,14,0.01
2013-8-6,96.0,83.2,74.2,78.0,74.0,69.8,89,75,55,29.84,29.71,13,3,15,0.01
2013-8-7,91.5,80.9,73.5,78.8,72.8,68.1,92,77,58,29.88,29.71,13,3,23,0.00
2013-8-8,87.6,76.0,68.9,75.1,71.1,67.4,96,85,63,29.96,29.75,15,1,23,1.73
2013-8-9,84.9,76.2,71.0,72.6,70.4,69.0,95,83,61,29.96,29.83,10,0,11,0.37
2013-8-10,84.0,74.4,69.9,72.2,69.9,68.2,96,86,66,30.04,29.94,10,0,12,0.03
2013-8-11,87.1,73.6,71.9,75.3,70.5,69.1,95,90,66,30.02,29.93,8,0,11,0.17
2013-8-12,86.0,77.4,71.7,75.5,71.6,68.7,94,83,68,29.97,29.87,17,1,22,0.25
2013-8-13,79.9,74.3,68.7,72.8,70.1,63.3,96,87,72,29.98,29.89,7,0,12,0.03
2013-8-14,80.8,72.1,60.3,63.4,59.4,56.9,92,66,46,30.08,29.98,12,1,14,0.00
2013-8-15,78.9,66.3,53.5,60.2,55.9,51.8,96,72,45,30.07,29.96,9,0,10,0.01
2013-8-16,79.6,66.8,57.1,60.0,57.7,55.1,94,75,46,30.06,29.98,6,0,9,0.00
2013-8-17,81.8,68.8,56.7,63.5,60.0,54.7,96,76,48,30.09,29.98,9,0,12,0.00
2013-8-18,85.4,71.7,57.9,67.3,62.4,56.0,96,75,47,30.08,29.98,7,0,11,0.00
2013-8-19,89.2,75.1,61.0,67.3,63.7,59.0,95,71,42,30.05,29.92,8,0,10,0.00
2013-8-20,91.1,76.6,62.7,68.5,65.0,61.0,95,70,41,30.02,29.93,9,1,9,0.00
2013-8-21,92.8,79.7,66.7,69.9,66.2,62.5,87,66,39,30.03,29.95,12,1,13,0.00
2013-8-22,94.0,81.0,69.2,71.9,67.3,63.9,86,65,39,30.03,29.92,8,0,10,0.00
2013-8-23,94.7,80.8,66.8,73.5,68.4,64.5,94,69,39,30.01,29.92,7,0,9,0.00
2013-8-24,92.4,81.0,68.7,73.3,69.4,66.2,94,70,46,30.06,29.97,11,1,12,0.00
2013-8-25,95.2,81.4,67.5,73.5,69.7,65.2,94,70,43,30.13,30.04,7,0,9,0.00
2013-8-26,94.1,81.9,72.6,73.0,70.2,67.0,89,70,45,30.13,30.00,14,1,14,0.00
2013-8-27,91.3,80.1,69.1,69.7,66.0,62.3,88,65,40,30.04,29.94,13,1,14,0.00
2013-8-28,95.2,82.2,69.9,72.8,68.9,64.4,85,66,43,30.00,29.92,12,1,13,0.00
2013-8-29,96.1,83.9,69.5,73.8,71.1,66.6,93,68,44,29.98,29.88,10,0,11,0.00
2013-8-30,97.0,84.9,75.7,73.6,70.9,67.9,84,65,40,29.92,29.78,12,2,15,0.00
2013-8-31,98.5,85.9,74.0,73.0,70.1,66.8,84,61,37,29.82,29.70,18,2,18,0.00
2013-9-1,86.4,78.8,72.9,73.5,69.2,66.2,88,73,57,29.82,29.69,15,1,21,0.11
2013-9-2,86.5,76.1,66.4,69.3,65.3,61.9,95,72,45,29.92,29.81,9,1,13,0.00
2013-9-3,89.2,74.1,60.2,66.3,61.1,56.9,94,68,35,29.99,29.90,7,0,11,0.00
2013-9-4,90.1,75.1,58.5,63.5,59.7,55.5,92,63,33,30.08,29.97,8,0,13,0.00
2013-9-5,89.7,74.6,58.5,65.1,60.3,55.9,92,64,36,30.12,30.02,8,0,12,0.00
2013-9-6,92.3,76.4,59.4,64.9,61.3,56.6,93,64,33,30.08,29.93,10,0,10,0.00
2013-9-7,96.1,82.3,70.8,67.9,65.0,61.6,81,58,33,29.97,29.84,9,1,13,0.00
2013-9-8,97.3,83.5,69.5,70.2,66.6,63.0,80,59,37,29.89,29.79,13,1,16,0.00
2013-9-9,95.4,83.8,72.6,68.3,65.7,61.2,78,57,33,29.92,29.84,20,2,20,0.00
2013-9-10,95.4,81.8,71.0,67.0,64.0,59.2,78,57,32,30.03,29.91,15,2,18,0.00
2013-9-11,93.7,80.5,68.3,71.8,67.4,63.4,85,66,42,30.07,29.95,13,0,13,0.00
2013-9-12,91.3,79.7,70.7,70.6,68.2,64.7,87,69,45,30.01,29.89,13,1,15,0.00
2013-9-13,82.9,72.3,63.4,67.2,53.9,49.4,83,54,33,30.02,29.91,13,1,14,0.00
2013-9-14,82.0,67.1,52.3,55.2,52.0,48.6,92,61,33,30.03,29.92,10,1,12,0.00
2013-9-15,89.6,75.6,60.5,65.7,58.0,49.1,67,55,40,30.00,29.92,13,1,14,0.00
2013-9-16,74.8,70.7,67.9,69.8,65.7,59.8,95,85,62,30.12,29.97,10,0,17,0.71
2013-9-17,84.5,74.5,66.4,70.5,66.4,63.5,92,77,56,30.09,29.93,6,0,9,0.00
2013-9-18,88.2,78.6,72.2,70.6,66.7,63.2,76,67,54,29.95,29.85,8,1,13,0.00
2013-9-19,90.7,79.8,71.7,72.1,67.8,64.5,88,68,47,29.92,29.79,22,3,26,0.08
2013-9-20,71.6,65.8,56.4,67.7,62.2,54.1,96,88,71,29.89,29.83,12,1,16,0.75
2013-9-21,75.2,62.0,49.5,56.0,50.0,42.2,95,69,31,29.97,29.86,12,1,15,0.01
2013-9-22,79.6,62.7,44.8,54.4,50.2,42.6,94,67,39,29.95,29.82,8,0,10,0.00
2013-9-23,81.3,66.3,49.1,57.3,53.8,46.6,93,67,40,29.88,29.74,10,1,14,0.00
2013-9-24,80.3,69.3,61.5,59.1,57.0,54.3,84,66,44,29.83,29.75,19,2,21,0.00
2013-9-25,81.2,68.3,56.8,62.0,58.5,54.4,93,73,49,29.82,29.75,8,0,13,0.00
2013-9-26,89.1,72.4,56.0,63.2,59.2,52.8,92,66,36,29.90,29.79,11,0,11,0.00
2013-9-27,87.5,74.1,58.3,64.9,60.4,56.0,93,65,40,29.95,29.85,13,2,17,0.00
2013-9-28,82.8,71.2,61.9,67.1,64.2,60.5,95,80,58,29.96,29.84,24,3,24,0.58
2013-9-29,77.2,66.1,58.4,61.6,59.1,56.4,96,80,52,29.99,29.86,7,0,12,0.05
2013-9-30,84.2,70.1,56.3,66.4,61.5,54.6,97,77,48,29.87,29.78,11,0,12,0.01
2013-10-1,88.0,75.1,63.5,69.3,65.7,61.4,96,75,44,29.92,29.82,11,1,13,0.00
2013-10-2,84.8,74.7,68.4,70.0,67.7,65.5,93,80,56,29.94,29.83,18,2,18,0.00
2013-10-3,85.6,76.1,69.3,69.6,67.5,65.6,89,76,53,29.88,29.77,20,3,22,0.00
2013-10-4,86.8,77.3,71.3,69.7,67.1,63.8,88,72,51,29.85,29.78,16,2,18,0.00
2013-10-5,73.5,58.5,49.1,69.3,56.2,46.9,96,92,81,29.96,29.80,15,1,21,1.68
2013-10-6,61.6,53.9,46.5,47.2,44.7,41.3,92,72,50,29.98,29.89,16,2,22,0.01
2013-10-7,71.6,57.4,44.2,50.3,46.4,42.0,94,70,40,30.10,29.97,10,1,14,0.00
2013-10-8,75.4,59.4,44.4,51.8,47.0,42.5,94,67,39,30.12,30.01,13,1,16,0.01
2013-10-9,78.6,61.4,44.0,54.0,49.3,41.5,93,68,35,30.08,29.98,7,0,9,0.00
2013-10-10,79.4,64.0,48.2,59.8,53.7,45.7,94,72,43,30.05,29.87,9,0,12,0.00
2013-10-11,80.1,68.4,56.9,63.9,60.5,52.3,92,77,56,29.92,29.80,21,3,22,0.00
2013-10-12,70.5,65.4,59.4,63.8,60.7,54.2,94,85,77,30.14,29.83,19,1,20,0.25
2013-10-13,73.7,64.2,55.3,54.3,50.3,44.6,84,61,47,30.27,30.14,12,0,18,0.00
2013-10-14,70.5,63.4,55.2,61.4,54.6,45.0,91,74,59,30.19,29.88,13,1,16,0.09
2013-10-15,66.3,60.8,53.4,64.5,56.9,49.0,95,87,70,30.00,29.82,15,1,18,0.36
2013-10-16,62.5,53.2,43.9,49.3,44.4,40.9,90,73,52,30.06,29.94,10,1,12,0.02
2013-10-17,65.2,52.7,44.2,47.2,45.1,42.3,94,77,49,30.02,29.92,12,1,12,0.00
2013-10-18,64.8,50.4,41.9,50.5,45.3,39.8,94,84,58,30.03,29.91,15,1,17,0.21
2013-10-19,42.6,40.2,37.5,40.7,38.0,34.8,94,92,89,30.07,30.01,9,1,17,0.02
2013-10-20,69.2,57.1,45.1,45.0,40.8,37.3,74,56,34,29.98,29.85,10,3,25,0.00
2013-10-21,57.4,48.9,39.9,48.4,44.1,38.3,94,84,67,30.07,29.91,8,0,12,0.05
2013-10-22,66.9,51.9,36.9,47.5,41.5,35.3,95,70,43,30.06,29.89,24,3,25,0.02
2013-10-23,64.7,49.2,37.8,43.1,38.3,33.8,89,69,38,30.16,29.97,7,0,9,0.00
2013-10-24,53.7,45.0,37.2,41.0,34.7,29.1,95,69,43,30.41,30.06,13,1,14,0.00
2013-10-25,60.1,45.6,31.8,34.3,29.7,25.1,90,58,28,30.48,30.17,11,0,12,0.00
2013-10-26,52.0,48.5,47.3,43.2,38.2,33.7,74,68,59,30.17,30.14,13,3,15,0.00
2013-10-27,68.2,54.4,44.1,48.5,44.3,37.3,92,71,38,30.05,29.93,1,0,9,0.00
2013-10-28,73.4,59.4,43.0,57.8,50.7,41.7,96,76,46,30.13,29.99,11,0,12,0.01
2013-10-29,71.5,65.6,57.8,64.2,60.4,54.0,90,84,74,30.08,29.92,19,3,23,0.08
2013-10-30,68.1,40.6,0.0,63.8,38.4,0.0,89,54,86,29.96,29.68,7,0,7,0.00
2013-10-31,74.6,42.1,0.0,65.1,37.3,0.0,95,55,44,29.73,29.37,29,5,36,0.10
2013-11-1,69.0,56.0,48.0,46.9,43.1,39.2,84,64,35,29.95,29.69,12,2,17,0.00
2013-11-2,55.8,47.4,37.4,41.4,38.1,33.5,89,71,51,30.19,29.94,19,2,19,0.00
2013-11-3,63.7,49.9,33.9,41.0,37.9,31.3,93,66,39,30.22,29.98,25,3,25,0.00
2013-11-4,57.4,54.0,51.3,51.9,46.3,40.4,93,75,66,30.14,29.98,15,3,23,0.03
2013-11-5,54.8,54.6,53.9,53.1,52.8,51.9,94,94,93,30.11,29.87,7,0,9,0.31
2013-11-6,54.7,46.4,35.7,53.0,43.0,32.7,94,88,77,30.34,29.84,8,1,21,0.00
2013-11-7,61.0,45.5,30.7,42.2,35.0,28.9,95,71,36,30.43,30.31,12,1,14,0.00
2013-11-8,65.2,51.1,33.2,41.5,36.9,30.9,93,62,31,30.33,30.05,20,3,22,0.00
2013-11-9,66.6,56.6,49.2,46.2,41.7,36.8,77,59,38,30.23,30.06,14,2,19,0.00
2013-11-10,66.7,55.9,46.9,45.5,41.5,38.3,89,61,38,30.33,30.21,9,0,13,0.00
2013-11-11,67.6,55.3,40.1,53.5,45.3,36.3,88,70,52,30.40,30.12,19,2,28,0.00
2013-11-12,40.2,32.8,23.6,36.1,20.6,16.2,85,62,39,30.68,30.40,18,3,20,0.00
2013-11-13,53.8,37.0,19.5,22.3,17.5,11.9,85,50,19,30.69,30.28,11,1,17,0.00
2013-11-14,57.9,46.6,34.1,37.7,22.5,14.6,80,41,21,30.28,30.00,17,2,23,0.00
2013-11-15,58.0,50.9,43.3,53.5,43.9,33.6,85,77,63,30.02,29.81,19,3,21,0.03
2013-11-16,71.6,65.6,58.0,64.5,58.4,53.5,85,78,67,29.81,29.52,30,11,36,0.00
2013-11-17,74.9,67.0,49.1,64.5,43.8,21.2,78,47,22,30.01,29.47,36,10,42,0.00
2013-11-18,62.7,50.4,40.1,39.0,29.5,22.6,75,48,22,30.24,29.98,11,0,12,0.00
2013-11-19,60.0,50.4,39.5,32.2,25.4,11.9,66,39,22,30.23,30.02,12,2,17,0.00
2013-11-20,65.9,54.4,44.6,38.1,26.3,13.5,49,35,13,30.04,29.86,18,2,24,0.00
2013-11-21,57.2,49.5,49.1,47.7,46.7,38.1,92,90,49,30.24,29.95,12,1,15,0.88
2013-11-22,49.1,37.7,31.7,46.9,35.7,29.6,95,92,91,30.51,30.22,14,2,15,0.00
2013-11-23,38.0,31.7,21.4,30.3,21.8,13.2,92,68,41,30.65,30.50,18,3,20,0.01
2013-11-24,29.9,25.0,17.9,16.0,12.9,10.5,74,60,46,30.69,30.34,8,0,8,0.00
2013-11-25,35.3,33.0,29.9,32.1,25.8,15.1,92,76,52,30.34,30.16,5,0,7,0.00
2013-11-26,44.8,35.0,24.3,31.9,26.6,14.2,92,72,52,30.32,30.08,24,4,27,0.00
2013-11-27,37.4,27.7,19.0,15.9,13.5,11.5,73,56,35,30.42,30.30,16,1,16,0.00
2013-11-28,55.4,40.7,29.2,29.9,23.3,13.2,83,51,36,30.43,30.28,20,3,21,0.00
2013-11-29,58.2,42.1,27.0,32.0,26.6,22.8,88,58,28,30.50,30.30,8,1,12,0.00
2013-11-30,59.3,49.3,40.3,43.6,38.1,26.9,86,66,55,30.30,30.07,24,5,24,0.00
2013-12-1,48.9,46.8,46.5,45.5,43.3,42.8,88,88,85,30.08,29.82,0,0,0,0.00
2013-12-2,67.2,52.3,44.6,52.0,45.9,40.7,97,80,46,29.83,29.59,6,0,7,0.00
2013-12-3,69.5,53.2,36.4,53.6,46.9,34.3,96,81,47,29.63,29.49,15,2,19,0.00
2013-12-4,65.9,49.4,32.3,52.0,42.5,28.9,96,79,50,29.93,29.51,23,4,26,0.00
2013-12-5,32.2,24.8,20.0,29.0,20.9,18.0,92,85,73,30.26,29.93,16,2,19,0.00
2013-12-6,20.0,18.2,13.4,18.0,15.9,10.5,92,91,88,30.57,30.23,10,3,14,0.00
2013-12-7,19.6,15.3,6.9,16.6,12.2,3.9,89,88,86,30.67,30.28,6,0,7,0.04
2013-12-8,29.2,25.3,19.0,27.7,23.4,16.0,94,93,87,30.28,30.02,12,1,16,0.01
2013-12-9,27.1,23.5,20.8,25.1,20.5,18.2,92,88,83,30.36,30.18,10,2,11,0.00
2013-12-10,37.3,25.6,15.3,28.0,20.3,12.9,91,80,61,30.44,30.28,8,1,11,0.17
2013-12-11,37.3,26.5,16.7,25.8,19.6,13.2,91,76,52,30.63,30.31,9,0,13,0.23
2013-12-12,44.7,30.4,12.7,22.3,16.1,9.1,89,59,32,30.59,30.22,18,2,19,0.14
2013-12-13,40.3,37.2,34.6,35.7,29.5,15.9,94,76,37,30.21,29.81,11,2,14,0.63
2013-12-14,34.8,31.3,25.7,33.5,28.9,22.2,95,91,86,30.22,29.81,20,3,22,0.25
2013-12-15,49.6,37.8,22.9,32.7,28.1,20.5,92,69,49,30.26,30.09,14,4,19,0.02
2013-12-16,62.7,51.7,44.5,35.9,33.4,31.3,66,51,34,30.11,30.00,17,5,18,0.00
2013-12-17,59.2,46.5,30.1,38.7,32.6,25.6,87,60,35,30.27,30.07,15,2,19,0.00
2013-12-18,33.8,33.2,31.2,29.1,28.6,27.8,87,83,79,30.23,30.22,6,2,6,0.00
2013-12-19,62.4,58.5,52.6,56.8,51.6,40.3,83,78,58,29.91,29.67,20,6,26,0.00
2013-12-20,65.7,48.3,32.8,58.7,44.4,31.5,95,87,72,29.82,29.67,23,4,25,0.69
2013-12-21,41.8,36.7,32.8,41.0,35.6,31.5,97,96,94,29.76,29.47,21,2,25,0.79
2013-12-22,35.6,29.9,25.4,34.0,26.7,21.8,94,88,82,30.36,29.71,24,5,24,0.00
2013-12-23,31.7,23.9,16.1,23.9,19.8,13.7,91,84,66,30.58,30.36,9,1,11,0.00
2013-12-24,43.5,28.4,15.8,29.4,21.4,13.4,91,76,54,30.58,30.28,11,2,14,0.01
2013-12-25,46.6,35.7,26.4,34.9,29.7,23.5,91,79,61,30.38,30.27,13,1,15,0.00
2013-12-26,52.8,38.4,23.8,34.2,26.5,22.1,94,66,31,30.40,30.28,13,2,15,0.01
2013-12-27,58.8,45.1,34.9,33.6,29.3,24.4,76,56,34,30.40,30.24,12,2,14,0.00
2013-12-28,56.2,43.2,28.3,34.5,28.7,23.6,86,59,33,30.24,29.90,11,1,13,0.00
2013-12-29,44.0,30.6,20.3,37.6,24.6,14.7,84,78,70,30.26,29.91,15,4,19,0.00
2013-12-30,40.6,27.4,16.0,23.9,18.7,12.6,86,71,47,30.37,30.22,12,1,12,0.00
2013-12-31,58.4,40.4,25.6,29.9,23.2,18.5,78,53,24,30.38,30.12,18,3,21,0.00
2014-1-1,57.2,42.7,19.9,36.9,27.7,16.1,86,57,33,30.14,29.83,23,4,24,0.00
2014-1-2,25.6,17.8,13.2,16.1,10.3,7.7,86,73,54,30.50,30.14,16,3,23,0.00